createdAt,value
2022-12-20T00:02:04.935Z,62.98
2022-12-20T00:04:32.750Z,62.43
2022-12-20T00:07:00.585Z,62.25
2022-12-20T00:09:29.052Z,62.38
2022-12-20T00:11:58.195Z,62.20
2022-12-20T00:14:25.945Z,62.01
2022-12-20T00:16:53.795Z,61.65
2022-12-20T00:19:21.545Z,61.42
2022-12-20T00:21:49.287Z,62.02
2022-12-20T00:24:22.225Z,61.54
2022-12-20T00:26:53.495Z,61.38
2022-12-20T00:29:22.653Z,61.43
2022-12-20T00:31:50.577Z,61.27
2022-12-20T00:34:18.617Z,61.48
2022-12-20T00:36:46.384Z,61.54
2022-12-20T00:39:14.188Z,61.14
2022-12-20T00:41:41.993Z,60.98
2022-12-20T00:44:09.713Z,60.79
2022-12-20T00:46:39.195Z,60.21
2022-12-20T00:49:07.454Z,60.98
2022-12-20T00:51:35.286Z,60.95
2022-12-20T00:54:03.023Z,60.71
2022-12-20T00:56:30.852Z,60.62
2022-12-20T00:58:59.529Z,59.86
2022-12-20T01:01:30.351Z,60.55
2022-12-20T01:04:00.585Z,60.29
2022-12-20T01:06:29.022Z,59.94
2022-12-20T01:08:57.570Z,60.45
2022-12-20T01:11:27.390Z,59.77
2022-12-20T01:13:57.259Z,60.04
2022-12-20T01:16:27.087Z,60.08
2022-12-20T01:18:55.079Z,59.91
2022-12-20T01:21:26.365Z,60.05
2022-12-20T01:23:54.808Z,60.26
2022-12-20T01:26:23.752Z,59.74
2022-12-20T01:28:54.189Z,59.55
2022-12-20T01:31:22.392Z,59.97
2022-12-20T01:33:51.133Z,60.03
2022-12-20T01:36:20.675Z,59.88
2022-12-20T01:38:49.755Z,60.86
2022-12-20T01:41:19.090Z,61.87
2022-12-20T01:43:50.970Z,62.04
2022-12-20T01:46:19.918Z,61.73
2022-12-20T01:48:52.007Z,61.22
2022-12-20T01:51:20.335Z,61.34
2022-12-20T01:53:50.130Z,61.94
2022-12-20T01:56:17.876Z,62.37
2022-12-20T01:58:47.480Z,61.83
2022-12-20T02:01:15.209Z,62.10
2022-12-20T02:03:43.687Z,63.08
2022-12-20T02:06:18.074Z,64.37
2022-12-20T02:08:47.538Z,64.48
2022-12-20T02:11:29.744Z,64.43
2022-12-20T02:14:06.292Z,65.19
2022-12-20T02:16:45.679Z,64.49
2022-12-20T02:19:26.574Z,64.78
2022-12-20T02:21:56.597Z,64.32
2022-12-20T02:24:42.592Z,64.82
2022-12-20T02:27:28.001Z,64.40
2022-12-20T02:30:06.754Z,64.71
2022-12-20T02:32:38.408Z,64.51
2022-12-20T02:35:08.657Z,63.62
2022-12-20T02:37:36.992Z,63.54
2022-12-20T02:40:06.292Z,63.93
2022-12-20T02:42:34.711Z,63.98
2022-12-20T02:45:16.187Z,65.34
2022-12-20T02:47:50.321Z,66.12
2022-12-20T02:50:21.577Z,66.45
2022-12-20T02:52:49.923Z,66.44
2022-12-20T02:55:18.938Z,66.41
2022-12-20T02:57:58.012Z,66.20
2022-12-20T03:00:34.166Z,65.99
2022-12-20T03:03:19.920Z,66.09
2022-12-20T03:05:48.964Z,65.84
2022-12-20T03:08:20.237Z,65.36
2022-12-20T03:10:50.183Z,65.85
2022-12-20T03:13:18.034Z,65.38
2022-12-20T03:16:04.279Z,65.50
2022-12-20T03:18:32.021Z,65.06
2022-12-20T03:20:59.816Z,64.98
2022-12-20T03:23:27.729Z,64.34
2022-12-20T03:25:55.531Z,65.91
2022-12-20T03:28:31.515Z,65.44
2022-12-20T03:30:59.351Z,64.98
2022-12-20T03:33:28.537Z,65.29
2022-12-20T03:35:59.695Z,65.66
2022-12-20T03:38:27.618Z,65.80
2022-12-20T03:40:55.387Z,66.48
2022-12-20T03:43:23.831Z,66.40
2022-12-20T03:45:51.652Z,67.27
2022-12-20T03:48:20.188Z,68.03
2022-12-20T03:50:50.393Z,68.21
2022-12-20T03:53:18.281Z,68.88
2022-12-20T03:55:46.127Z,68.38
2022-12-20T03:58:14.945Z,68.22
2022-12-20T04:00:43.216Z,67.99
2022-12-20T04:03:33.221Z,68.65
2022-12-20T04:06:02.383Z,69.23
2022-12-20T04:08:30.169Z,71.00
2022-12-20T04:11:15.544Z,71.06
2022-12-20T04:13:50.182Z,71.40
2022-12-20T04:16:22.018Z,73.50
2022-12-20T04:18:50.075Z,71.01
2022-12-20T04:21:22.943Z,70.26
2022-12-20T04:23:52.512Z,70.85
2022-12-20T04:26:20.578Z,71.46
2022-12-20T04:28:48.759Z,70.98
2022-12-20T04:31:23.283Z,71.08
2022-12-20T04:33:52.525Z,70.76
2022-12-20T04:36:22.738Z,71.39
2022-12-20T04:38:52.873Z,71.51
2022-12-20T04:41:23.670Z,72.00
2022-12-20T04:44:02.221Z,71.62
2022-12-20T04:46:36.541Z,72.51
2022-12-20T04:49:05.931Z,72.50
2022-12-20T04:51:37.212Z,73.08
2022-12-20T04:54:05.769Z,73.06
2022-12-20T04:56:42.028Z,72.72
2022-12-20T04:59:12.573Z,72.72
2022-12-20T05:01:42.963Z,72.90
2022-12-20T05:04:12.046Z,72.72
2022-12-20T05:06:41.380Z,73.82
2022-12-20T05:09:09.291Z,74.49
2022-12-20T05:11:37.104Z,74.47
2022-12-20T05:14:08.566Z,74.97
2022-12-20T05:16:37.483Z,75.17
2022-12-20T05:19:07.376Z,75.66
2022-12-20T05:21:58.756Z,77.35
2022-12-20T05:24:44.154Z,77.93
2022-12-20T05:27:38.140Z,79.02
2022-12-20T05:30:07.571Z,79.40
2022-12-20T05:32:35.424Z,79.25
2022-12-20T05:35:03.275Z,78.93
2022-12-20T05:37:33.657Z,78.56
2022-12-20T05:40:10.426Z,78.02
2022-12-20T05:42:38.646Z,78.37
2022-12-20T05:45:08.028Z,77.85
2022-12-20T05:47:44.733Z,77.44
2022-12-20T05:50:18.560Z,77.28
2022-12-20T05:53:11.667Z,77.43
2022-12-20T05:55:45.791Z,77.34
2022-12-20T05:58:14.368Z,77.02
2022-12-20T06:00:51.650Z,77.23
2022-12-20T06:03:20.413Z,76.50
2022-12-20T06:05:48.283Z,76.27
2022-12-20T06:08:24.572Z,76.11
2022-12-20T06:10:53.630Z,75.79
2022-12-20T06:13:22.861Z,76.45
2022-12-20T06:15:53.418Z,76.62
2022-12-20T06:18:21.895Z,76.80
2022-12-20T06:20:52.514Z,76.54
2022-12-20T06:23:24.961Z,76.32
2022-12-20T06:26:04.363Z,75.86
2022-12-20T06:28:35.227Z,75.98
2022-12-20T06:31:03.585Z,75.71
2022-12-20T06:33:51.701Z,75.55
2022-12-20T06:36:22.071Z,74.98
2022-12-20T06:38:51.511Z,74.84
2022-12-20T06:41:19.457Z,74.21
2022-12-20T06:43:47.461Z,74.32
2022-12-20T06:46:15.339Z,74.37
2022-12-20T06:48:44.911Z,73.55
2022-12-20T06:51:13.722Z,73.95
2022-12-20T06:53:41.618Z,73.95
2022-12-20T06:56:10.864Z,73.00
2022-12-20T06:58:38.577Z,72.72
2022-12-20T07:01:06.804Z,72.36
2022-12-20T07:03:34.616Z,71.81
2022-12-20T07:06:02.380Z,72.04
2022-12-20T07:08:30.146Z,71.84
2022-12-20T07:10:57.934Z,71.74
2022-12-20T07:13:27.052Z,71.44
2022-12-20T07:15:59.240Z,71.31
2022-12-20T07:18:27.100Z,71.14
2022-12-20T07:20:54.849Z,71.27
2022-12-20T07:23:22.657Z,71.24
2022-12-20T07:25:55.234Z,71.17
2022-12-20T07:28:23.640Z,70.67
2022-12-20T07:30:55.618Z,70.35
2022-12-20T07:33:23.415Z,70.43
2022-12-20T07:35:54.762Z,70.68
2022-12-20T07:38:22.831Z,70.66
2022-12-20T07:40:50.650Z,70.56
2022-12-20T07:43:18.418Z,70.71
2022-12-20T07:45:47.493Z,70.54
2022-12-20T07:48:21.600Z,69.93
2022-12-20T07:50:49.886Z,70.00
2022-12-20T07:53:17.946Z,69.86
2022-12-20T07:55:45.776Z,69.47
2022-12-20T07:58:14.637Z,69.11
2022-12-20T08:00:42.492Z,68.42
2022-12-20T08:03:15.472Z,68.08
2022-12-20T08:05:47.750Z,67.84
2022-12-20T08:08:16.212Z,67.59
2022-12-20T08:10:44.743Z,67.21
2022-12-20T08:13:12.504Z,67.18
2022-12-20T08:15:40.266Z,66.57
2022-12-20T08:18:08.115Z,66.51
2022-12-20T08:20:35.824Z,67.00
2022-12-20T08:23:05.655Z,66.65
2022-12-20T08:25:41.298Z,66.77
2022-12-20T08:28:09.789Z,66.41
2022-12-20T08:30:37.972Z,66.38
2022-12-20T08:33:06.427Z,65.73
2022-12-20T08:35:34.201Z,65.31
2022-12-20T08:38:02.068Z,65.75
2022-12-20T08:40:31.571Z,65.65
2022-12-20T08:43:02.406Z,65.79
2022-12-20T08:45:34.379Z,65.51
2022-12-20T08:48:02.110Z,65.36
2022-12-20T08:50:29.861Z,65.30
2022-12-20T08:52:57.599Z,64.96
2022-12-20T08:55:29.093Z,64.24
2022-12-20T08:57:58.831Z,64.14
2022-12-20T09:00:26.604Z,64.02
2022-12-20T09:02:55.078Z,63.50
2022-12-20T09:05:23.003Z,63.49
2022-12-20T09:07:50.724Z,63.52
2022-12-20T09:10:18.451Z,63.37
2022-12-20T09:12:46.151Z,64.18
2022-12-20T09:15:15.289Z,64.18
2022-12-20T09:17:43.013Z,64.23
2022-12-20T09:20:11.473Z,63.97
2022-12-20T09:22:40.067Z,63.76
2022-12-20T09:25:08.801Z,63.65
2022-12-20T09:27:36.561Z,64.17
2022-12-20T09:30:04.895Z,64.03
2022-12-20T09:32:34.007Z,64.00
2022-12-20T09:35:01.759Z,63.72
2022-12-20T09:37:31.103Z,63.09
2022-12-20T09:39:58.986Z,63.03
2022-12-20T09:42:28.498Z,63.02
2022-12-20T09:45:02.369Z,63.30
2022-12-20T09:47:30.148Z,63.60
2022-12-20T09:49:59.293Z,63.51
2022-12-20T09:52:35.947Z,62.75
2022-12-20T09:55:13.934Z,62.49
2022-12-20T09:57:53.425Z,63.02
2022-12-20T10:00:22.223Z,62.94
2022-12-20T10:03:06.597Z,63.00
2022-12-20T10:05:43.896Z,62.82
2022-12-20T10:08:17.593Z,62.43
2022-12-20T10:10:55.102Z,62.40
2022-12-20T10:13:42.029Z,61.65
2022-12-20T10:16:29.272Z,61.31
2022-12-20T10:19:05.409Z,61.61
2022-12-20T10:21:42.834Z,61.92
2022-12-20T10:24:15.251Z,61.70
2022-12-20T10:26:43.408Z,61.65
2022-12-20T10:29:11.176Z,60.90
2022-12-20T10:31:39.848Z,60.56
2022-12-20T10:34:07.924Z,60.20
2022-12-20T10:36:37.962Z,60.07
2022-12-20T10:39:07.031Z,60.69
2022-12-20T10:41:35.820Z,60.27
2022-12-20T10:44:05.814Z,59.83
2022-12-20T10:46:38.948Z,59.65
2022-12-20T10:49:31.023Z,61.29
2022-12-20T10:52:02.901Z,61.18
2022-12-20T10:54:33.457Z,61.07
2022-12-20T10:57:02.653Z,60.76
2022-12-20T10:59:34.441Z,59.97
2022-12-20T11:02:02.409Z,60.15
2022-12-20T11:04:32.204Z,59.43
2022-12-20T11:07:02.019Z,58.40
2022-12-20T11:09:31.962Z,58.39
2022-12-20T11:12:05.899Z,57.77
2022-12-20T11:14:39.193Z,57.31
2022-12-20T11:17:18.866Z,56.77
2022-12-20T11:19:59.349Z,57.37
2022-12-20T11:22:35.911Z,57.92
2022-12-20T11:25:14.423Z,57.92
2022-12-20T11:27:48.675Z,57.75
2022-12-20T11:30:19.643Z,57.40
2022-12-20T11:33:05.963Z,57.08
2022-12-20T11:35:42.907Z,57.69
2022-12-20T11:38:18.957Z,57.13
2022-12-20T11:40:52.887Z,57.20
2022-12-20T11:43:28.768Z,57.52
2022-12-20T11:46:08.588Z,57.00
2022-12-20T11:49:01.295Z,57.15
2022-12-20T11:51:35.290Z,57.22
2022-12-20T11:54:11.883Z,57.07
2022-12-20T11:56:44.659Z,57.50
2022-12-20T11:59:19.280Z,57.94
2022-12-20T12:01:51.455Z,57.97
2022-12-20T12:04:22.620Z,58.79
2022-12-20T12:06:54.831Z,57.91
2022-12-20T12:09:28.659Z,58.85
2022-12-20T12:12:07.428Z,58.62
2022-12-20T12:14:51.490Z,58.26
2022-12-20T12:17:25.946Z,58.00
2022-12-20T12:19:55.923Z,58.18
2022-12-20T12:22:28.385Z,58.36
2022-12-20T12:24:59.405Z,57.46
2022-12-20T12:27:29.300Z,58.22
2022-12-20T12:29:59.120Z,58.91
2022-12-20T12:32:31.603Z,58.52
2022-12-20T12:35:11.946Z,59.30
2022-12-20T12:38:11.504Z,60.31
2022-12-20T12:40:54.035Z,60.47
2022-12-20T12:43:40.186Z,61.00
2022-12-20T12:46:14.424Z,61.61
2022-12-20T12:48:44.654Z,62.23
2022-12-20T12:51:13.473Z,61.82
2022-12-20T12:53:44.413Z,61.71
2022-12-20T12:56:46.719Z,61.34
2022-12-20T12:59:41.592Z,61.27
2022-12-20T13:02:34.022Z,60.38
2022-12-20T13:05:26.278Z,59.86
2022-12-20T13:07:54.951Z,60.26
2022-12-20T13:10:58.367Z,62.57
2022-12-20T13:13:27.657Z,62.89
2022-12-20T13:16:14.832Z,63.01
2022-12-20T13:19:06.255Z,63.14
2022-12-20T13:21:38.595Z,63.37
2022-12-20T13:24:37.252Z,63.55
2022-12-20T13:27:15.655Z,63.35
2022-12-20T13:30:02.424Z,63.69
2022-12-20T13:32:56.006Z,64.39
2022-12-20T13:35:45.816Z,66.13
2022-12-20T13:38:37.474Z,67.27
2022-12-20T13:41:13.833Z,67.67
2022-12-20T13:43:44.383Z,67.53
2022-12-20T13:46:16.482Z,67.50
2022-12-20T13:48:51.462Z,68.46
2022-12-20T13:51:21.473Z,70.57
2022-12-20T13:53:53.884Z,71.30
2022-12-20T13:56:34.082Z,72.16
2022-12-20T13:59:06.021Z,72.73
2022-12-20T14:01:36.180Z,72.84
2022-12-20T14:04:07.323Z,72.87
2022-12-20T14:06:35.833Z,72.75
2022-12-20T14:09:05.700Z,71.77
2022-12-20T14:11:33.506Z,71.35
2022-12-20T14:14:03.308Z,71.25
2022-12-20T14:16:32.148Z,70.77
2022-12-20T14:19:05.496Z,70.45
2022-12-20T14:21:36.105Z,70.78
2022-12-20T14:24:04.514Z,70.33
2022-12-20T14:26:37.163Z,70.01
2022-12-20T14:29:11.407Z,70.05
2022-12-20T14:31:41.773Z,70.23
2022-12-20T14:34:17.545Z,70.30
2022-12-20T14:36:47.316Z,70.49
2022-12-20T14:39:26.114Z,70.58
2022-12-20T14:41:58.093Z,70.23
2022-12-20T14:44:27.338Z,69.89
2022-12-20T14:46:56.777Z,70.30
2022-12-20T14:49:30.072Z,70.17
2022-12-20T14:52:07.744Z,70.62
2022-12-20T14:57:26.117Z,72.32
2022-12-20T15:00:02.841Z,73.93
2022-12-20T15:02:41.203Z,74.83
2022-12-20T15:05:39.044Z,77.16
2022-12-20T15:08:18.566Z,77.93
2022-12-20T15:10:55.089Z,79.39
2022-12-20T15:13:25.402Z,79.92
2022-12-20T15:15:53.216Z,80.80
2022-12-20T15:18:21.691Z,81.09
2022-12-20T15:20:58.365Z,81.16
2022-12-20T15:23:26.128Z,81.67
2022-12-20T15:25:54.014Z,80.91
2022-12-20T15:28:23.769Z,80.41
2022-12-20T15:30:52.631Z,79.76
2022-12-20T15:33:23.159Z,79.53
2022-12-20T15:35:52.878Z,78.90
2022-12-20T15:38:40.686Z,78.30
2022-12-20T15:41:14.855Z,78.78
2022-12-20T15:43:42.599Z,79.23
2022-12-20T15:46:10.586Z,79.40
2022-12-20T15:48:38.429Z,79.52
2022-12-20T15:51:16.352Z,78.67
2022-12-20T15:53:44.255Z,78.87
2022-12-20T15:56:18.693Z,78.81
2022-12-20T15:58:47.380Z,79.23
2022-12-20T16:01:17.548Z,79.78
2022-12-20T16:03:45.876Z,79.30
2022-12-20T16:06:15.382Z,78.69
2022-12-20T16:08:43.501Z,78.28
2022-12-20T16:11:20.382Z,78.00
2022-12-20T16:13:48.327Z,78.12
2022-12-20T16:16:18.217Z,78.21
2022-12-20T16:18:46.210Z,77.17
2022-12-20T16:21:18.690Z,76.58
2022-12-20T16:23:46.774Z,76.60
2022-12-20T16:26:16.078Z,76.43
2022-12-20T16:28:44.419Z,77.24
2022-12-20T16:31:21.639Z,76.98
2022-12-20T16:33:49.471Z,77.56
2022-12-20T16:36:18.607Z,78.00
2022-12-20T16:38:46.330Z,78.61
2022-12-20T16:41:15.540Z,78.48
2022-12-20T16:43:43.322Z,78.16
2022-12-20T16:46:13.306Z,77.88
2022-12-20T16:48:41.744Z,77.97
2022-12-20T16:51:26.055Z,77.64
2022-12-20T16:54:17.955Z,76.79
2022-12-20T16:56:42.061Z,76.67
2022-12-20T16:59:25.117Z,76.21
2022-12-20T17:01:54.547Z,75.93
2022-12-20T17:04:26.638Z,75.82
2022-12-20T17:06:55.871Z,76.07
2022-12-20T17:12:15.463Z,75.93
2022-12-20T17:14:43.266Z,75.66
2022-12-20T17:17:11.048Z,75.46
2022-12-20T17:19:39.326Z,75.30
2022-12-20T17:22:23.803Z,75.16
2022-12-20T17:24:51.597Z,74.97
2022-12-20T17:27:19.472Z,74.93
2022-12-20T17:29:47.183Z,75.35
2022-12-20T17:32:20.709Z,74.14
2022-12-20T17:34:48.791Z,73.77
2022-12-20T17:37:18.628Z,73.58
2022-12-20T17:39:46.445Z,73.01
2022-12-20T17:42:14.456Z,72.89
2022-12-20T17:44:42.290Z,72.93
2022-12-20T17:47:11.492Z,73.61
2022-12-20T17:49:39.441Z,74.08
2022-12-20T17:52:07.206Z,74.62
2022-12-20T17:54:40.041Z,75.25
2022-12-20T17:57:13.938Z,74.73
2022-12-20T17:59:42.339Z,75.23
2022-12-20T18:02:21.235Z,75.78
2022-12-20T18:04:49.197Z,75.93
2022-12-20T18:07:17.094Z,75.47
2022-12-20T18:09:47.377Z,75.21
2022-12-20T18:12:15.219Z,75.49
2022-12-20T18:14:42.991Z,75.09
2022-12-20T18:17:10.914Z,75.17
2022-12-20T18:19:39.553Z,75.20
2022-12-20T18:22:07.451Z,75.74
2022-12-20T18:24:35.239Z,75.64
2022-12-20T18:27:04.638Z,75.39
2022-12-20T18:29:32.563Z,75.50
2022-12-20T18:32:00.475Z,75.48
2022-12-20T18:34:28.241Z,75.33
2022-12-20T18:36:56.066Z,75.15
2022-12-20T18:39:23.867Z,75.38
2022-12-20T18:41:51.744Z,74.80
2022-12-20T18:44:21.041Z,74.17
2022-12-20T18:46:48.889Z,74.37
2022-12-20T18:49:16.763Z,74.68
2022-12-20T18:51:44.649Z,75.00
2022-12-20T18:54:14.071Z,75.57
2022-12-20T18:56:42.150Z,74.63
2022-12-20T18:59:12.714Z,75.08
2022-12-20T19:01:43.580Z,75.32
2022-12-20T19:04:12.002Z,74.95
2022-12-20T19:06:40.074Z,75.75
2022-12-20T19:09:09.523Z,76.24
2022-12-20T19:11:37.551Z,75.96
2022-12-20T19:14:05.422Z,75.69
2022-12-20T19:16:33.553Z,76.28
2022-12-20T19:19:03.762Z,76.47
2022-12-20T19:21:33.137Z,76.34
2022-12-20T19:24:05.013Z,77.41
2022-12-20T19:26:32.872Z,77.45
2022-12-20T19:29:00.691Z,76.90
2022-12-20T19:31:30.661Z,76.29
2022-12-20T19:34:00.348Z,76.37
2022-12-20T19:36:31.281Z,76.84
2022-12-20T19:39:01.270Z,77.15
2022-12-20T19:41:30.890Z,76.87
2022-12-20T19:43:58.874Z,76.30
2022-12-20T19:46:29.782Z,76.52
2022-12-20T19:48:58.879Z,77.66
2022-12-20T19:51:29.185Z,77.95
2022-12-20T19:53:57.887Z,77.78
2022-12-20T19:56:27.300Z,77.53
2022-12-20T19:58:56.046Z,76.59
2022-12-20T20:01:26.161Z,77.23
2022-12-20T20:03:54.327Z,78.34
2022-12-20T20:06:22.588Z,78.44
2022-12-20T20:08:51.796Z,77.95
2022-12-20T20:11:20.950Z,78.27
2022-12-20T20:13:49.005Z,79.08
2022-12-20T20:16:21.888Z,78.70
2022-12-20T20:18:50.106Z,79.37
2022-12-20T20:21:21.177Z,78.86
2022-12-20T20:23:50.930Z,78.81
2022-12-20T20:26:20.753Z,79.34
2022-12-20T20:28:48.638Z,79.11
2022-12-20T20:31:17.846Z,80.01
2022-12-20T20:33:46.753Z,79.25
2022-12-20T20:36:16.560Z,79.28
2022-12-20T20:38:44.517Z,79.24
2022-12-20T20:41:14.945Z,80.03
2022-12-20T20:43:43.393Z,81.07
2022-12-20T20:46:13.236Z,81.29
2022-12-20T20:48:41.559Z,81.50
2022-12-20T20:51:09.719Z,81.89
2022-12-20T20:53:37.835Z,81.64
2022-12-20T20:56:06.685Z,82.71
2022-12-20T20:58:36.593Z,83.01
2022-12-20T21:01:08.302Z,83.81
2022-12-20T21:03:36.420Z,83.11
2022-12-20T21:08:52.254Z,82.03
2022-12-20T21:11:20.174Z,81.17
2022-12-20T21:13:49.477Z,81.66
2022-12-20T21:16:20.378Z,81.79
2022-12-20T21:18:51.784Z,81.83
2022-12-20T21:21:20.256Z,84.28
2022-12-20T21:23:49.034Z,84.54
2022-12-20T21:26:18.673Z,84.89
2022-12-20T21:28:46.624Z,85.09
2022-12-20T21:31:17.817Z,85.73
2022-12-20T21:33:46.175Z,85.97
2022-12-20T21:36:15.624Z,86.53
2022-12-20T21:38:43.833Z,85.90
2022-12-20T21:41:13.267Z,86.44
2022-12-20T21:43:41.105Z,86.09
2022-12-20T21:46:11.252Z,85.67
2022-12-20T21:48:42.152Z,85.70
2022-12-20T21:51:11.538Z,85.74
2022-12-20T21:53:43.423Z,85.61
2022-12-20T21:56:11.737Z,85.91
2022-12-20T21:58:39.535Z,86.66
2022-12-20T22:01:08.177Z,86.64
2022-12-20T22:03:36.853Z,86.62
2022-12-20T22:06:06.528Z,85.78
2022-12-20T22:08:35.291Z,85.53
2022-12-20T22:11:05.128Z,84.45
2022-12-20T22:13:40.486Z,84.36
2022-12-20T22:16:09.706Z,85.31
2022-12-20T22:18:38.063Z,84.61
2022-12-20T22:21:09.226Z,84.00
2022-12-20T22:23:38.139Z,84.61
2022-12-20T22:26:07.197Z,84.23
2022-12-20T22:28:35.134Z,83.29
2022-12-20T22:31:07.491Z,82.95
2022-12-20T22:33:35.624Z,82.32
2022-12-20T22:36:03.599Z,82.64
2022-12-20T22:38:32.854Z,83.25
2022-12-20T22:41:07.962Z,82.56
2022-12-20T22:43:35.656Z,84.44
2022-12-20T22:46:03.737Z,85.25
2022-12-20T22:48:32.030Z,86.55
2022-12-20T22:51:00.471Z,100.00
2022-12-20T22:53:28.592Z,100.00
2022-12-20T22:55:57.710Z,99.36
2022-12-20T22:58:25.543Z,95.98
2022-12-20T23:00:53.304Z,93.19
2022-12-20T23:03:21.238Z,91.69
2022-12-20T23:05:53.055Z,89.94
2022-12-20T23:08:21.250Z,90.57
2022-12-20T23:11:06.644Z,89.94
2022-12-20T23:13:53.248Z,89.48
2022-12-20T23:16:21.294Z,90.03
2022-12-20T23:18:49.028Z,90.24
2022-12-20T23:21:34.568Z,89.53
2022-12-20T23:24:02.304Z,88.86
2022-12-20T23:26:30.042Z,88.15
2022-12-20T23:28:59.169Z,87.77
2022-12-20T23:31:26.885Z,86.93
2022-12-20T23:33:54.621Z,87.20
2022-12-20T23:36:22.354Z,87.06
2022-12-20T23:38:50.153Z,86.87
2022-12-20T23:41:17.951Z,87.36
2022-12-20T23:43:45.706Z,87.03
2022-12-20T23:46:16.627Z,87.48
2022-12-20T23:48:44.761Z,87.83
2022-12-20T23:51:12.605Z,86.99
2022-12-20T23:53:40.523Z,87.04
2022-12-20T23:56:10.806Z,86.82
2022-12-20T23:58:39.169Z,86.23
